Who's Online

We have 4 guests online

GK Weather

An error occured during parsing XML data. Please try again.

Aviation WX

[source: ADDS]
METAR
KIAD 302052Z 31018G32KT 10SM SCT050 SCT160 00/M11 A3013 RMK AO2 PK WND 32032/2044 SLP203 T00001111 53028 =
TAF
KIAD 302107Z 3021/3124 32022G36KT P6SM SCT050 FM310300 31016G28KT P6SM FEW050 FM310900 31014KT P6SM FEW250 FM311800 31009KT P6SM FEW250 =
SR / SS: 01:57 / 12:12 UTC (Washington-Dulles 2015-01-30)

JoomlaWatch Agent

Home Links
We are regularly out on the Web. When we find a great site we list it.